Time;durP1;ratioP1;P1;durP2;ratioP2;P2;SDS_P1;SDS_P2;PMS_P1;PMS_P2;Temp;Humidity;BMP_temperature;BMP_pressure;BME280_temperature;BME280_humidity;BME280_pressure;Samples;Min_cycle;Max_cycle;Signal;HPM_P1;HPM_P2
2023/10/30 00:00:46;;;;;;;28.13;16.95;;;;;;;16.28;86.33;100887.09;4944622;28;20058;-79
2023/10/30 00:03:15;;;;;;;33.95;18.88;;;;;;;15.84;86.87;100840.00;4938618;28;20078;-78
2023/10/30 00:05:42;;;;;;;24.13;16.00;;;;;;;16.18;86.51;100879.22;4934128;28;20050;-77
2023/10/30 00:08:09;;;;;;;26.40;17.52;;;;;;;16.49;87.12;100919.59;4912836;28;20073;-76
2023/10/30 00:10:36;;;;;;;29.10;17.88;;;;;;;16.36;87.06;100887.94;4931544;28;20050;-77
2023/10/30 00:13:02;;;;;;;33.28;18.73;;;;;;;16.60;86.88;100896.97;4936420;28;20052;-77
2023/10/30 00:15:29;;;;;;;23.25;15.82;;;;;;;16.62;86.52;100878.88;4938750;28;20101;-77
2023/10/30 00:17:58;;;;;;;27.15;17.67;;;;;;;16.54;86.22;100871.69;4943150;28;20077;-80
2023/10/30 00:20:28;;;;;;;27.63;18.85;;;;;;;16.64;86.03;100871.50;4952205;28;20046;-81
2023/10/30 00:22:56;;;;;;;27.65;18.08;;;;;;;16.65;86.50;100899.97;4937857;28;20603;-80
2023/10/30 00:25:23;;;;;;;27.60;16.98;;;;;;;16.49;86.42;100865.16;4947780;28;20865;-77
2023/10/30 00:27:52;;;;;;;25.27;17.00;;;;;;;16.72;86.73;100884.88;4950317;28;20572;-79
2023/10/30 00:30:19;;;;;;;25.38;13.90;;;;;;;16.80;86.43;100887.59;4949853;28;20052;-78
2023/10/30 00:32:50;;;;;;;38.00;20.30;;;;;;;16.77;86.04;100887.91;4942689;28;20051;-80
2023/10/30 00:35:17;;;;;;;29.95;17.23;;;;;;;16.76;85.64;100899.63;4942812;28;20051;-79
2023/10/30 00:37:44;;;;;;;27.92;18.00;;;;;;;16.71;85.82;100869.00;4938788;28;20050;-77
2023/10/30 00:40:12;;;;;;;32.30;20.25;;;;;;;16.64;85.98;100882.22;4955647;28;20046;-79
2023/10/30 00:42:38;;;;;;;27.52;20.33;;;;;;;16.62;86.71;100881.56;4950556;28;20100;-77
2023/10/30 00:45:06;;;;;;;31.08;20.08;;;;;;;16.55;87.99;100884.06;4949392;28;20056;-80
2023/10/30 00:47:38;;;;;;;25.08;18.45;;;;;;;16.58;87.28;100890.97;4941596;28;20078;-78
2023/10/30 00:50:07;;;;;;;29.20;18.58;;;;;;;16.56;87.42;100891.13;4951622;28;20397;-78
2023/10/30 00:52:34;;;;;;;32.13;20.45;;;;;;;16.52;87.76;100886.25;4953795;28;20133;-79
2023/10/30 00:55:01;;;;;;;37.50;20.15;;;;;;;16.49;87.97;100881.25;4908152;28;20645;-79
2023/10/30 00:57:28;;;;;;;34.33;20.42;;;;;;;16.39;87.53;100882.25;4930848;28;20053;-81
2023/10/30 00:59:55;;;;;;;31.35;19.13;;;;;;;16.36;87.96;100876.38;4931743;28;20058;-77
2023/10/30 01:02:22;;;;;;;27.00;18.38;;;;;;;16.45;88.81;100876.19;4920159;28;20468;-80
2023/10/30 01:04:49;;;;;;;29.65;17.13;;;;;;;16.25;88.57;100834.69;4936841;28;20428;-77
2023/10/30 01:07:19;;;;;;;32.83;18.77;;;;;;;16.41;89.27;100861.47;4945260;28;20058;-79
2023/10/30 01:09:49;;;;;;;26.02;18.05;;;;;;;16.45;89.61;100878.88;4946211;28;20050;-78
2023/10/30 01:12:16;;;;;;;27.80;19.48;;;;;;;16.44;89.39;100879.06;4959611;28;20150;-81
2023/10/30 01:14:43;;;;;;;29.23;17.45;;;;;;;16.30;89.41;100837.69;4953727;28;20061;-77
2023/10/30 01:17:10;;;;;;;29.63;18.88;;;;;;;16.47;89.24;100845.72;4953764;28;20049;-79
2023/10/30 01:19:36;;;;;;;29.90;19.25;;;;;;;16.32;89.75;100824.97;4945996;28;20050;-79
2023/10/30 01:22:03;;;;;;;31.60;17.67;;;;;;;16.53;89.86;100837.00;4929978;28;20131;-79
2023/10/30 01:24:30;;;;;;;28.50;20.17;;;;;;;16.51;89.76;100836.34;4938355;28;20444;-79
2023/10/30 01:27:02;;;;;;;25.15;16.02;;;;;;;16.32;89.53;100803.53;4946212;28;20085;-79
2023/10/30 01:29:29;;;;;;;27.05;18.85;;;;;;;16.56;89.09;100836.69;4938419;28;20082;-78
2023/10/30 01:32:02;;;;;;;27.10;19.25;;;;;;;16.49;88.81;100830.31;4935647;28;20048;-80
2023/10/30 01:34:35;;;;;;;30.38;19.20;;;;;;;16.54;88.49;100860.13;4929063;28;20050;-77
2023/10/30 01:37:02;;;;;;;28.85;19.33;;;;;;;16.47;88.55;100880.56;4939095;28;20102;-79
2023/10/30 01:39:29;;;;;;;29.30;17.90;;;;;;;16.01;89.25;100838.19;4942631;28;20050;-82
2023/10/30 01:41:57;;;;;;;34.63;18.08;;;;;;;16.28;89.88;100882.56;4939694;28;20047;-80
2023/10/30 01:44:27;;;;;;;29.20;17.42;;;;;;;16.37;89.93;100897.63;4940752;28;20389;-80
2023/10/30 01:46:56;;;;;;;27.90;18.65;;;;;;;16.14;90.89;100853.75;4949963;28;20054;-78
2023/10/30 01:49:23;;;;;;;30.55;20.73;;;;;;;16.19;91.58;100863.00;4935019;28;20050;-77
2023/10/30 01:51:50;;;;;;;32.13;20.10;;;;;;;16.02;91.54;100826.50;4948248;28;20380;-79
2023/10/30 01:54:17;;;;;;;26.48;18.15;;;;;;;16.02;91.08;100835.34;4930339;28;20493;-79
2023/10/30 01:56:45;;;;;;;30.85;19.50;;;;;;;16.09;91.09;100854.25;4927934;28;20134;-78
2023/10/30 01:59:11;;;;;;;26.55;18.45;;;;;;;15.93;91.86;100828.31;4932547;28;20479;-80
2023/10/30 02:01:39;;;;;;;26.30;18.42;;;;;;;15.97;92.35;100829.66;4926330;28;20497;-78
2023/10/30 02:04:06;;;;;;;28.70;19.20;;;;;;;15.97;91.13;100827.00;4932909;28;20059;-78
2023/10/30 02:06:35;;;;;;;27.30;19.73;;;;;;;16.09;91.32;100840.03;4927588;28;20079;-77
2023/10/30 02:09:04;;;;;;;27.27;19.05;;;;;;;16.03;91.55;100801.38;4941368;28;20057;-79
2023/10/30 02:11:31;;;;;;;33.58;23.25;;;;;;;15.99;91.30;100811.56;4957721;28;20436;-78
2023/10/30 02:13:58;;;;;;;29.83;20.13;;;;;;;16.09;91.97;100819.44;4956069;28;20149;-77
2023/10/30 02:16:24;;;;;;;38.63;21.77;;;;;;;16.00;91.02;100807.06;4954441;28;20050;-79
2023/10/30 02:18:51;;;;;;;30.60;21.05;;;;;;;16.07;90.88;100834.00;4953743;28;20487;-79
2023/10/30 02:21:20;;;;;;;33.83;21.88;;;;;;;16.02;90.80;100842.56;4957831;28;20066;-78
2023/10/30 02:23:47;;;;;;;31.05;22.38;;;;;;;15.89;90.88;100818.94;4951970;28;20254;-78
2023/10/30 02:26:14;;;;;;;33.72;21.77;;;;;;;15.95;91.04;100820.97;4938493;28;20046;-79
2023/10/30 02:28:41;;;;;;;29.08;21.77;;;;;;;15.91;91.17;100816.94;4954007;28;20147;-78
2023/10/30 02:31:08;;;;;;;24.58;12.60;;;;;;;16.00;90.89;100782.97;4928857;28;20330;-79
2023/10/30 02:33:35;;;;;;;27.23;20.67;;;;;;;16.21;89.87;100785.97;4953083;28;20496;-78
2023/10/30 02:36:02;;;;;;;29.00;22.60;;;;;;;16.05;89.65;100763.72;4959441;28;20182;-77
2023/10/30 02:38:35;;;;;;;28.02;21.08;;;;;;;16.17;89.19;100807.91;4930794;28;20268;-79
2023/10/30 02:41:11;;;;;;;29.23;21.52;;;;;;;16.03;90.34;100804.06;4923442;28;20141;-80
2023/10/30 02:43:39;;;;;;;28.05;21.35;;;;;;;15.84;90.37;100781.13;4936543;28;20396;-80
2023/10/30 02:46:06;;;;;;;27.23;21.20;;;;;;;15.94;91.11;100805.88;4962379;28;20132;-80
2023/10/30 02:48:33;;;;;;;27.63;19.98;;;;;;;15.67;91.53;100766.84;4946517;28;20050;-78
2023/10/30 02:51:00;;;;;;;34.20;21.10;;;;;;;15.92;90.82;100817.75;4943315;28;20491;-79
2023/10/30 02:53:27;;;;;;;30.40;20.75;;;;;;;15.80;92.20;100814.56;4939441;28;20074;-80
2023/10/30 02:55:59;;;;;;;26.20;19.52;;;;;;;15.67;93.03;100792.78;4934944;28;20325;-80
2023/10/30 02:58:25;;;;;;;36.97;21.25;;;;;;;15.81;92.99;100797.53;4933586;28;20405;-78
2023/10/30 03:00:54;;;;;;;25.63;18.85;;;;;;;15.76;92.65;100778.44;4926314;28;20515;-79
2023/10/30 03:03:22;;;;;;;29.02;20.60;;;;;;;15.49;92.85;100729.53;4914415;28;20422;-78
2023/10/30 03:05:52;;;;;;;29.27;19.93;;;;;;;15.70;93.39;100776.41;4946709;28;20401;-79
2023/10/30 03:08:25;;;;;;;26.67;20.33;;;;;;;15.75;94.12;100776.75;4949845;28;20065;-81
2023/10/30 03:10:53;;;;;;;22.27;17.23;;;;;;;15.97;93.51;100788.66;4936966;28;20059;-78
2023/10/30 03:13:20;;;;;;;27.60;20.10;;;;;;;15.94;93.43;100784.47;4923423;28;20051;-79
2023/10/30 03:15:47;;;;;;;23.88;20.70;;;;;;;16.01;92.75;100795.34;4932113;28;20481;-78
2023/10/30 03:18:14;;;;;;;25.10;19.90;;;;;;;15.82;92.48;100769.72;4916783;28;20434;-81
2023/10/30 03:20:41;;;;;;;32.33;22.45;;;;;;;15.92;92.98;100791.00;4934963;28;20053;-79
2023/10/30 03:23:07;;;;;;;25.75;19.13;;;;;;;15.87;93.86;100791.47;4923216;28;20050;-78
2023/10/30 03:25:34;;;;;;;27.95;20.60;;;;;;;15.79;93.92;100762.88;4935512;28;20054;-78
2023/10/30 03:28:02;;;;;;;24.95;19.23;;;;;;;15.90;93.49;100785.81;4952424;28;20488;-81
2023/10/30 03:30:29;;;;;;;29.98;21.00;;;;;;;15.90;92.46;100777.78;4951874;28;20058;-80
2023/10/30 03:32:56;;;;;;;24.95;19.83;;;;;;;15.98;92.82;100783.13;4960220;28;20046;-80
2023/10/30 03:35:23;;;;;;;25.73;20.52;;;;;;;15.96;92.19;100778.94;4951379;28;20046;-78
2023/10/30 03:37:50;;;;;;;24.33;18.40;;;;;;;15.89;92.89;100776.09;4932480;28;20050;-79
2023/10/30 03:40:17;;;;;;;29.73;20.90;;;;;;;15.97;93.43;100783.28;4937402;28;20046;-79
2023/10/30 03:42:44;;;;;;;31.90;19.52;;;;;;;15.99;93.46;100787.47;4929101;28;20477;-80
2023/10/30 03:45:11;;;;;;;25.23;20.75;;;;;;;15.89;92.80;100749.31;4930899;28;20054;-78
2023/10/30 03:47:38;;;;;;;29.27;19.63;;;;;;;16.02;92.68;100787.16;4937053;28;20074;-79
2023/10/30 03:50:06;;;;;;;28.05;21.15;;;;;;;15.99;92.84;100781.28;4940515;28;20065;-80
2023/10/30 03:52:35;;;;;;;29.00;21.05;;;;;;;15.91;93.04;100771.41;4921617;28;20429;-81
2023/10/30 03:55:08;;;;;;;28.00;22.27;;;;;;;15.90;93.16;100783.13;4932522;28;20055;-80
2023/10/30 03:57:35;;;;;;;24.92;19.08;;;;;;;15.75;92.91;100763.38;4940978;28;20350;-78
2023/10/30 04:00:03;;;;;;;28.00;20.85;;;;;;;15.70;92.71;100744.31;4941641;28;20062;-79
2023/10/30 04:02:34;;;;;;;;;;;;;;;15.87;92.85;100783.44;4933293;28;20140;-79
2023/10/30 04:05:00;;;;;;;25.00;18.25;;;;;;;15.75;93.74;100769.59;4959105;28;19926;-79
2023/10/30 04:07:30;;;;;;;25.70;17.60;;;;;;;15.73;93.56;100760.06;4939784;28;20054;-79
2023/10/30 04:09:57;;;;;;;24.00;19.42;;;;;;;15.80;94.28;100783.31;4944005;28;20046;-79
2023/10/30 04:12:24;;;;;;;30.67;20.98;;;;;;;15.86;94.68;100776.44;4950640;28;20042;-79
2023/10/30 04:14:55;;;;;;;34.40;22.80;;;;;;;15.49;94.42;100715.34;4930040;28;20050;-80
2023/10/30 04:17:22;;;;;;;32.33;21.10;;;;;;;15.24;94.54;100685.03;4938839;28;20104;-80
2023/10/30 04:19:49;;;;;;;31.83;22.13;;;;;;;15.80;94.44;100787.78;4954241;28;20313;-78
2023/10/30 04:22:20;;;;;;;31.43;21.40;;;;;;;15.28;94.65;100707.78;4937485;28;20526;-78
2023/10/30 04:24:47;;;;;;;30.27;22.08;;;;;;;15.65;95.15;100768.03;4960212;28;20542;-78
2023/10/30 04:27:14;;;;;;;31.88;22.40;;;;;;;15.81;95.73;100789.50;4951120;28;20142;-80
2023/10/30 04:29:41;;;;;;;32.95;23.02;;;;;;;15.84;95.56;100788.31;4963323;28;20468;-78
2023/10/30 04:32:14;;;;;;;24.90;18.42;;;;;;;15.80;95.21;100772.59;4953097;28;20190;-80
2023/10/30 04:34:46;;;;;;;39.30;25.25;;;;;;;15.79;95.17;100776.25;4937639;28;20124;-79
2023/10/30 04:37:13;;;;;;;33.65;23.80;;;;;;;15.77;95.19;100788.97;4923273;28;20057;-80
2023/10/30 04:39:40;;;;;;;35.33;25.70;;;;;;;15.82;95.14;100812.56;4960598;28;20141;-79
2023/10/30 04:42:08;;;;;;;32.42;22.17;;;;;;;15.13;95.06;100689.69;4928675;28;20065;-79
2023/10/30 04:44:38;;;;;;;36.45;24.42;;;;;;;15.78;94.85;100781.81;4924020;28;20073;-83
2023/10/30 04:47:08;;;;;;;32.05;24.60;;;;;;;15.46;93.62;100727.22;4931130;28;20455;-81
2023/10/30 04:49:36;;;;;;;37.70;26.77;;;;;;;15.92;93.06;100788.31;4930550;28;20293;-80
2023/10/30 04:52:04;;;;;;;39.03;27.50;;;;;;;15.79;93.24;100780.78;4932231;28;20342;-79
2023/10/30 04:54:31;;;;;;;35.35;25.25;;;;;;;15.69;93.33;100788.09;4936537;28;20469;-78
2023/10/30 04:56:58;;;;;;;39.10;27.17;;;;;;;15.70;93.44;100797.81;4922193;28;20521;-80
2023/10/30 04:59:26;;;;;;;43.88;27.92;;;;;;;15.50;93.97;100771.34;4921609;28;20064;-81
2023/10/30 05:01:53;;;;;;;40.83;27.23;;;;;;;15.47;94.02;100760.97;4955342;28;20066;-80
2023/10/30 05:04:20;;;;;;;44.67;31.00;;;;;;;15.64;93.32;100779.75;4956522;28;20054;-79
2023/10/30 05:06:48;;;;;;;52.33;33.72;;;;;;;15.54;92.89;100762.00;4954224;28;20519;-79
2023/10/30 05:09:15;;;;;;;43.75;31.60;;;;;;;15.58;92.92;100782.06;4940372;28;20146;-78
2023/10/30 05:11:42;;;;;;;47.50;33.60;;;;;;;15.42;93.43;100759.81;4955578;28;20042;-78
2023/10/30 05:14:09;;;;;;;50.58;35.45;;;;;;;15.52;93.83;100782.72;4955600;28;20050;-79
2023/10/30 05:16:36;;;;;;;51.17;34.28;;;;;;;15.35;93.31;100751.59;4946978;28;20038;-78
2023/10/30 05:19:03;;;;;;;56.65;34.58;;;;;;;15.30;93.79;100746.72;4936104;28;20456;-79
2023/10/30 05:21:30;;;;;;;47.35;33.40;;;;;;;15.47;93.39;100766.31;4955362;28;20456;-79
2023/10/30 05:23:57;;;;;;;56.28;38.00;;;;;;;15.32;93.39;100736.72;4950860;28;20050;-78
2023/10/30 05:26:28;;;;;;;57.15;37.70;;;;;;;15.38;94.02;100775.31;4936004;28;20214;-79
2023/10/30 05:28:55;;;;;;;55.75;36.83;;;;;;;15.38;94.13;100788.69;4949255;28;20400;-78
2023/10/30 05:31:24;;;;;;;57.92;37.80;;;;;;;15.31;94.89;100788.50;4951504;28;20170;-78
2023/10/30 05:33:51;;;;;;;51.92;34.90;;;;;;;15.38;95.11;100784.19;4949914;28;20065;-78
2023/10/30 05:36:18;;;;;;;52.28;37.10;;;;;;;15.32;95.06;100766.13;4963956;28;20137;-79
2023/10/30 05:38:45;;;;;;;54.08;34.65;;;;;;;15.29;94.65;100765.59;4953648;28;20069;-78
2023/10/30 05:41:12;;;;;;;50.40;35.13;;;;;;;15.38;94.33;100772.66;4950716;28;20656;-79
2023/10/30 05:43:39;;;;;;;54.67;36.60;;;;;;;15.35;93.93;100765.78;4942632;28;20058;-80
2023/10/30 05:46:07;;;;;;;58.30;37.63;;;;;;;15.32;94.23;100741.22;4947249;28;20401;-79
2023/10/30 05:48:34;;;;;;;42.67;30.33;;;;;;;15.18;94.15;100710.59;4962694;28;20058;-80
2023/10/30 05:51:01;;;;;;;57.03;36.90;;;;;;;15.39;93.87;100744.91;4963605;28;20058;-78
2023/10/30 05:53:28;;;;;;;55.55;37.50;;;;;;;15.38;93.88;100761.94;4947957;28;20219;-79
2023/10/30 05:55:55;;;;;;;55.63;31.30;;;;;;;15.17;93.80;100727.66;4956120;28;20896;-79
2023/10/30 05:58:22;;;;;;;58.75;37.33;;;;;;;15.29;93.69;100752.22;4940262;28;20081;-79
2023/10/30 06:00:55;;;;;;;54.83;35.63;;;;;;;15.24;94.67;100751.88;4936628;28;20057;-80
2023/10/30 06:03:23;;;;;;;55.70;37.55;;;;;;;15.01;95.20;100700.88;4955266;28;20046;-79
2023/10/30 06:05:51;;;;;;;49.10;34.05;;;;;;;15.25;95.77;100745.56;4922229;28;20083;-79
2023/10/30 06:08:22;;;;;;;47.92;32.42;;;;;;;15.16;95.68;100731.31;4933927;28;20670;-80
2023/10/30 06:10:49;;;;;;;49.58;33.13;;;;;;;15.29;95.40;100760.25;4943286;28;20498;-79
2023/10/30 06:13:18;;;;;;;48.88;31.77;;;;;;;14.83;95.07;100676.91;4933625;28;20046;-79
2023/10/30 06:15:45;;;;;;;51.70;34.70;;;;;;;15.14;95.00;100728.78;4945661;28;20112;-79
2023/10/30 06:18:12;;;;;;;48.42;34.25;;;;;;;15.30;94.82;100748.56;4954869;28;20046;-78
2023/10/30 06:20:45;;;;;;;48.67;31.25;;;;;;;15.08;94.81;100708.06;4939026;28;20252;-78
2023/10/30 06:23:12;;;;;;;47.58;34.33;;;;;;;14.94;94.62;100669.44;4947542;28;20048;-78
2023/10/30 06:25:39;;;;;;;47.38;32.00;;;;;;;15.26;94.33;100731.16;4948574;28;20051;-79
2023/10/30 06:28:08;;;;;;;50.20;34.28;;;;;;;15.32;94.91;100741.22;4924930;28;20474;-79
2023/10/30 06:30:36;;;;;;;46.08;31.27;;;;;;;15.26;95.13;100750.72;4934837;28;20062;-78
2023/10/30 06:33:09;;;;;;;54.17;33.55;;;;;;;14.43;95.44;100607.13;4930964;28;20060;-80
2023/10/30 06:35:35;;;;;;;47.20;33.88;;;;;;;15.33;96.00;100754.41;4965285;28;20051;-79
2023/10/30 06:38:03;;;;;;;53.25;33.65;;;;;;;15.45;94.89;100772.84;4964585;28;20055;-79
2023/10/30 06:40:30;;;;;;;53.70;33.38;;;;;;;15.40;94.33;100770.66;4958686;28;20354;-80
2023/10/30 06:42:57;;;;;;;45.53;33.45;;;;;;;15.27;94.68;100755.09;4948514;28;20086;-79
2023/10/30 06:45:27;;;;;;;53.33;35.10;;;;;;;15.27;94.78;100751.56;4951792;28;20305;-80
2023/10/30 06:47:54;;;;;;;52.47;34.65;;;;;;;15.33;94.76;100775.81;4966019;28;20050;-78
2023/10/30 06:50:22;;;;;;;56.70;34.20;;;;;;;15.30;94.58;100775.31;4957585;28;20050;-78
2023/10/30 06:52:51;;;;;;;55.92;35.35;;;;;;;15.25;95.32;100762.44;4930857;28;20109;-78
2023/10/30 06:55:18;;;;;;;58.78;36.28;;;;;;;15.43;94.97;100780.19;4934483;28;20302;-78
2023/10/30 06:57:50;;;;;;;56.53;34.92;;;;;;;15.41;95.39;100783.00;4936428;28;20105;-81
2023/10/30 07:00:23;;;;;;;59.70;37.13;;;;;;;15.32;95.36;100770.66;4926970;28;20070;-78
2023/10/30 07:02:52;;;;;;;57.67;34.90;;;;;;;15.30;94.81;100753.91;4951208;28;20050;-81
2023/10/30 07:05:20;;;;;;;57.58;35.58;;;;;;;15.43;95.03;100775.66;4932502;28;20057;-78
2023/10/30 07:07:46;;;;;;;60.15;37.35;;;;;;;15.42;94.99;100782.03;4957246;28;20058;-78
2023/10/30 07:10:13;;;;;;;67.03;38.03;;;;;;;15.41;95.63;100795.56;4956003;28;20082;-77
2023/10/30 07:12:43;;;;;;;98.68;38.55;;;;;;;15.39;96.05;100791.22;4965940;28;20125;-78
2023/10/30 07:15:10;;;;;;;60.33;36.70;;;;;;;15.44;95.44;100792.56;4958905;28;20050;-79
2023/10/30 07:17:37;;;;;;;59.58;36.88;;;;;;;15.42;95.00;100789.22;4947402;28;20542;-79
2023/10/30 07:20:04;;;;;;;65.00;37.50;;;;;;;15.40;95.24;100781.34;4949148;28;20584;-78
2023/10/30 07:22:32;;;;;;;68.93;37.33;;;;;;;15.38;95.32;100767.31;4963614;28;20079;-78
2023/10/30 07:25:00;;;;;;;63.33;37.13;;;;;;;15.37;95.59;100779.00;4962730;28;20105;-79
2023/10/30 07:27:27;;;;;;;65.60;39.00;;;;;;;15.28;96.32;100774.63;4927305;28;20104;-80
2023/10/30 07:29:54;;;;;;;64.13;35.65;;;;;;;15.42;96.60;100778.53;4955152;28;20488;-79
2023/10/30 07:32:23;;;;;;;70.30;40.58;;;;;;;15.34;96.85;100773.97;4945642;28;20503;-79
2023/10/30 07:34:50;;;;;;;74.80;39.75;;;;;;;15.46;96.70;100778.03;4947653;28;20457;-80
2023/10/30 07:37:17;;;;;;;75.28;40.90;;;;;;;15.39;96.50;100763.66;4951781;28;20466;-78
2023/10/30 07:39:44;;;;;;;109.93;44.20;;;;;;;15.25;96.26;100742.88;4949243;28;20042;-79
2023/10/30 07:42:12;;;;;;;73.88;41.60;;;;;;;15.38;96.87;100756.59;4937188;28;20054;-78
2023/10/30 07:44:39;;;;;;;54.70;31.55;;;;;;;15.49;96.59;100777.69;4953322;28;20492;-79
2023/10/30 07:47:07;;;;;;;82.90;43.10;;;;;;;15.42;96.59;100739.22;4956649;28;20162;-80
2023/10/30 07:49:36;;;;;;;75.35;41.00;;;;;;;15.25;96.62;100721.47;4960314;28;20050;-80
2023/10/30 07:52:06;;;;;;;74.50;41.33;;;;;;;15.49;97.36;100769.69;4941539;28;21185;-80
2023/10/30 07:54:35;;;;;;;78.85;42.67;;;;;;;15.47;97.32;100763.66;4935358;28;20481;-80
2023/10/30 07:57:02;;;;;;;74.30;41.90;;;;;;;15.40;97.24;100754.59;4943487;28;20058;-81
2023/10/30 07:59:36;;;;;;;80.93;42.38;;;;;;;15.50;98.13;100770.50;4951625;28;20042;-80
2023/10/30 08:02:05;;;;;;;71.82;41.50;;;;;;;15.45;97.35;100744.25;4944585;28;20097;-79
2023/10/30 08:04:32;;;;;;;79.45;42.67;;;;;;;15.59;96.78;100750.78;4944476;28;20070;-80
2023/10/30 08:07:01;;;;;;;69.72;38.13;;;;;;;15.56;97.40;100748.47;4943634;28;20419;-80
2023/10/30 08:09:32;;;;;;;77.35;42.40;;;;;;;15.59;97.70;100742.75;4941096;28;20400;-79
2023/10/30 08:12:06;;;;;;;75.80;40.95;;;;;;;15.72;97.75;100747.66;4946139;28;20055;-79
2023/10/30 08:14:33;;;;;;;66.55;38.50;;;;;;;15.80;96.52;100734.25;4944754;28;20047;-80
2023/10/30 08:17:05;;;;;;;78.68;42.92;;;;;;;15.88;96.33;100758.38;4941505;28;20485;-79
2023/10/30 08:19:31;;;;;;;75.78;43.92;;;;;;;15.87;96.70;100753.19;4944850;28;20050;-79
2023/10/30 08:21:58;;;;;;;72.78;42.13;;;;;;;15.72;96.55;100720.88;4954765;28;20077;-80
2023/10/30 08:24:25;;;;;;;77.43;42.20;;;;;;;15.98;96.57;100747.50;4926328;28;20119;-80
2023/10/30 08:26:59;;;;;;;68.63;40.60;;;;;;;15.89;96.02;100729.75;4894491;28;20058;-81
2023/10/30 08:29:29;;;;;;;72.68;39.22;;;;;;;15.94;96.07;100740.78;4932786;28;20067;-79
2023/10/30 08:31:56;;;;;;;72.47;42.35;;;;;;;15.81;95.96;100711.84;4935238;28;20125;-79
2023/10/30 08:34:23;;;;;;;71.85;41.05;;;;;;;15.99;96.14;100728.56;4948208;28;20556;-80
2023/10/30 08:36:49;;;;;;;73.07;40.15;;;;;;;16.08;95.56;100752.69;4933228;28;20061;-80
2023/10/30 08:39:17;;;;;;;77.70;42.95;;;;;;;15.66;95.49;100658.16;4906965;28;20073;-81
2023/10/30 08:41:44;;;;;;;76.72;41.00;;;;;;;16.01;95.51;100721.19;4926131;28;20731;-81
2023/10/30 08:44:11;;;;;;;76.63;42.05;;;;;;;16.08;96.09;100731.25;4954274;28;20042;-79
2023/10/30 08:46:41;;;;;;;72.63;40.58;;;;;;;16.17;95.68;100732.91;4936478;28;20407;-81
2023/10/30 08:49:08;;;;;;;83.05;42.72;;;;;;;15.96;94.37;100710.16;4939269;28;20077;-79
2023/10/30 08:51:43;;;;;;;79.60;43.67;;;;;;;16.15;93.80;100765.22;4959166;28;20407;-80
2023/10/30 08:54:26;;;;;;;72.43;41.00;;;;;;;16.00;94.50;100756.19;4945748;28;20133;-81
2023/10/30 08:56:58;;;;;;;82.28;43.72;;;;;;;15.97;94.63;100749.34;4906217;28;20049;-80
2023/10/30 08:59:42;;;;;;;83.15;43.38;;;;;;;16.02;94.79;100749.66;4919665;28;20304;-78
2023/10/30 09:02:09;;;;;;;82.03;41.78;;;;;;;16.02;94.32;100759.56;4927273;28;20113;-82
2023/10/30 09:04:38;;;;;;;93.88;45.90;;;;;;;15.78;94.03;100726.41;4931581;28;20046;-78
2023/10/30 09:07:06;;;;;;;80.38;44.35;;;;;;;15.93;94.16;100744.50;4959802;28;20057;-80
2023/10/30 09:09:37;;;;;;;90.68;46.97;;;;;;;16.10;93.66;100772.09;4946952;28;20045;-81
2023/10/30 09:12:04;;;;;;;89.97;46.65;;;;;;;16.09;94.09;100759.69;4919255;28;20057;-80
2023/10/30 09:14:31;;;;;;;82.40;42.00;;;;;;;16.17;93.21;100757.03;4919671;28;20145;-80
2023/10/30 09:17:03;;;;;;;82.65;43.75;;;;;;;16.12;93.62;100754.03;4922515;28;20795;-81
2023/10/30 09:19:38;;;;;;;81.95;43.45;;;;;;;16.10;93.72;100764.06;4922143;28;20876;-80
2023/10/30 09:22:05;;;;;;;92.60;45.70;;;;;;;16.06;93.31;100752.00;4933589;28;20091;-80
2023/10/30 09:24:32;;;;;;;92.47;45.13;;;;;;;16.09;94.40;100744.47;4976347;28;20088;-80
2023/10/30 09:26:59;;;;;;;84.57;42.53;;;;;;;15.87;94.69;100713.84;4958949;28;20169;-81
2023/10/30 09:29:26;;;;;;;91.80;45.97;;;;;;;16.07;94.87;100769.72;4960786;28;20045;-80
2023/10/30 09:31:53;;;;;;;94.97;45.55;;;;;;;16.03;93.77;100755.84;4962300;28;20132;-80
2023/10/30 09:34:27;;;;;;;97.38;46.80;;;;;;;16.00;93.75;100754.34;4965659;28;20064;-78
2023/10/30 09:36:54;;;;;;;;;;;;;;;16.02;94.02;100755.03;4961255;28;21112;-78
2023/10/30 09:39:21;;;;;;;82.30;39.53;;;;;;;15.95;93.90;100737.97;4942450;28;19922;-77
2023/10/30 09:41:48;;;;;;;99.60;45.85;;;;;;;15.94;94.72;100733.59;4926849;28;20110;-79
2023/10/30 09:44:15;;;;;;;96.35;44.05;;;;;;;15.78;94.79;100699.66;4954734;28;20137;-78
2023/10/30 09:46:43;;;;;;;94.13;41.97;;;;;;;15.98;94.62;100726.91;4957929;28;20133;-79
2023/10/30 09:49:13;;;;;;;86.85;42.88;;;;;;;15.45;94.58;100639.91;4935727;28;20237;-78
2023/10/30 09:51:43;;;;;;;96.90;41.95;;;;;;;15.97;95.22;100709.19;4951843;28;20132;-78
2023/10/30 09:54:16;;;;;;;79.40;40.22;;;;;;;16.04;96.44;100714.66;4943386;28;20838;-79
2023/10/30 09:56:49;;;;;;;88.13;40.17;;;;;;;15.89;94.52;100690.44;4916979;28;20076;-77
2023/10/30 09:59:23;;;;;;;78.75;37.00;;;;;;;16.12;94.20;100697.78;4931572;28;20046;-79
2023/10/30 10:01:51;;;;;;;71.70;33.05;;;;;;;16.10;93.50;100703.28;4946082;28;20497;-79
2023/10/30 10:04:18;;;;;;;84.20;41.60;;;;;;;15.74;94.19;100631.38;4945334;28;20399;-79
2023/10/30 10:06:46;;;;;;;87.18;42.00;;;;;;;16.20;94.22;100700.44;4953575;28;20050;-77
2023/10/30 10:09:13;;;;;;;76.28;39.17;;;;;;;16.30;93.25;100717.16;4941409;28;20116;-78
2023/10/30 10:11:45;;;;;;;84.07;41.13;;;;;;;16.18;93.35;100719.34;4963653;28;20305;-80
2023/10/30 10:14:16;;;;;;;82.47;43.10;;;;;;;16.10;94.26;100689.06;4959740;28;20136;-76
2023/10/30 10:16:44;;;;;;;78.50;39.90;;;;;;;16.09;94.89;100669.47;4982415;28;20316;-78
2023/10/30 10:19:20;;;;;;;77.20;38.83;;;;;;;16.15;95.56;100662.63;4967471;28;20081;-78
2023/10/30 10:21:53;;;;;;;77.28;37.35;;;;;;;16.12;96.05;100649.56;4950444;28;20157;-80
2023/10/30 10:24:29;;;;;;;73.80;35.05;;;;;;;16.37;96.02;100656.50;4965412;28;20049;-79
2023/10/30 10:27:03;;;;;;;66.90;32.83;;;;;;;16.43;95.34;100653.16;4948517;28;20250;-80
2023/10/30 10:29:33;;;;;;;68.22;35.47;;;;;;;16.61;94.08;100668.16;4945749;28;20062;-78
2023/10/30 10:32:00;;;;;;;70.65;34.90;;;;;;;16.62;92.97;100665.28;4953533;28;20152;-80
2023/10/30 10:34:31;;;;;;;64.60;34.10;;;;;;;16.56;92.20;100643.72;4955096;28;20924;-80
2023/10/30 10:36:59;;;;;;;54.30;27.25;;;;;;;16.63;92.47;100644.69;4940326;28;20116;-79
2023/10/30 10:39:26;;;;;;;57.03;28.30;;;;;;;16.79;92.20;100623.19;4975563;28;20061;-78
2023/10/30 10:41:54;;;;;;;56.22;28.90;;;;;;;16.82;91.49;100601.41;4954451;28;20046;-80
2023/10/30 10:44:22;;;;;;;66.30;34.08;;;;;;;17.19;90.58;100613.22;4945985;28;20774;-80
2023/10/30 10:46:52;;;;;;;51.88;26.15;;;;;;;17.00;90.15;100562.72;4939616;28;20050;-80
2023/10/30 10:49:20;;;;;;;49.30;26.00;;;;;;;17.36;89.16;100602.34;4941568;28;20058;-79
2023/10/30 10:51:47;;;;;;;57.92;31.08;;;;;;;17.56;87.22;100608.88;4944443;28;20054;-80
2023/10/30 10:54:24;;;;;;;46.95;23.63;;;;;;;17.65;86.57;100602.41;4942460;28;20149;-79
2023/10/30 10:56:57;;;;;;;46.15;26.60;;;;;;;17.73;85.92;100591.59;4977977;28;20065;-80
2023/10/30 10:59:29;;;;;;;58.37;32.10;;;;;;;17.47;85.54;100542.84;4941172;28;20054;-80
2023/10/30 11:01:58;;;;;;;52.20;30.90;;;;;;;17.68;86.07;100569.81;4952057;28;20070;-79
2023/10/30 11:04:25;;;;;;;61.47;32.78;;;;;;;17.75;84.95;100563.72;4914814;28;20104;-80
2023/10/30 11:07:07;;;;;;;62.95;33.03;;;;;;;17.62;85.72;100564.34;4933942;28;20219;-79
2023/10/30 11:09:51;;;;;;;48.50;25.80;;;;;;;17.37;86.62;100555.72;4974115;28;20438;-80
2023/10/30 11:12:34;;;;;;;44.38;25.25;;;;;;;17.49;87.28;100583.75;4937272;28;20034;-80
2023/10/30 11:15:12;;;;;;;46.53;25.48;;;;;;;17.52;86.95;100570.84;4959914;28;20103;-80